• Join FlightAware (Why Join?)
  • Login
  • US Flag 
10:00PM EST


 

Airport Tracker/Info


-or-


 

Live Flight TrackerFlight Track Log ✈ DAL6269 ✈ 10-Jul-2014 ✈ KDTW - KSTL

Flight Track Log - Related Links

Times and Time Zones

All times are in EDT time to prevent confusion due to time zone crossing. See the DAL6269 flight status page for this flight to view local times or setup timezone preferences in your user account.

Time Position Orientation Groundspeed Altitude Reporting Facility
EDT Latitude Longitude Course Direction KTS MPH feet Rate Location/Type
08:35PM 42.1675 -83.4039 208° Southwest 207 238 2,900  Level Cleveland Center
08:36PM 42.1650 -83.4061 213° Southwest 213 245 3,100 2,220 Climbing Cleveland Center
08:37PM 42.1050 -83.4542 211° Southwest 265 305 5,400 2,760 Climbing Cleveland Center
08:38PM 42.0378 -83.5092 211° Southwest 278 320 8,500 2,580 Climbing Cleveland Center
08:38PM 42.0381 -83.5103 289° West 273 314 8,500 2,040 Level Cleveland Center
08:39PM 41.9558 -83.5744 210° Southwest 292 336 11,000 1,740 Climbing Cleveland Center
08:40PM 41.8731 -83.6406 211° Southwest 346 398 12,100 1,440 Climbing Cleveland Center
08:41PM 41.7022 -84.4931 208° Southwest  Level Estimated
08:41PM 41.7881 -83.7092 211° Southwest 353 406 14,000  Level Cleveland Center
08:42PM 41.6961 -83.7803 210° Southwest 375 432 16,300 1,980 Climbing Cleveland Center
08:43PM 41.6058 -83.8525 211° Southwest 376 433 18,100 1,860 Climbing Cleveland Center
08:44PM 41.5114 -83.9264 210° Southwest 389 448 20,200 1,860 Climbing Cleveland Center
08:45PM 41.3953 -84.0183 211° Southwest 403 464 22,000 1,500 Climbing Cleveland Center
08:46PM 41.3000 -84.0925 210° Southwest 410 472 23,400 1,320 Climbing Cleveland Center
08:47PM 41.2292 -84.2081 231° Southwest 416 479 24,800 1,260 Climbing Cleveland Center
08:48PM 41.1933 -84.3531 252° West 412 474 26,100 1,200 Climbing Cleveland Center
08:49PM 41.1558 -84.4983 251° West 412 474 27,300 1,140 Climbing Cleveland Center
08:50PM 41.1106 -84.6789 252° West 425 489 28,500 960 Climbing Cleveland Center
08:51PM 41.0711 -84.8300 251° West 432 497 29,500 960 Climbing Chicago Center
08:52PM 41.0231 -85.0147 251° West 438 504 30,700 1,020 Climbing Chicago Center
08:53PM 40.9992 -85.1697 259° West 433 498 31,700 960 Climbing Chicago Center
08:54PM 40.9786 -85.3292 260° West 432 497 32,700 960 Climbing Chicago Center
08:55PM 40.9592 -85.4869 261° West 433 498 33,700 960 Climbing Chicago Center
08:57PM 40.9381 -85.6436 260° West 433 498 34,800 960 Climbing Chicago Center
08:58PM 40.9175 -85.7983 260° West 432 497 35,800 540 Climbing Chicago Center
08:59PM 40.8925 -85.9875 260° West 432 497 36,000 60 Climbing Chicago Center
09:00PM 40.8725 -86.1450 261° West 434 499 36,000  Level Chicago Center
09:01PM 40.8497 -86.3031 259° West 435 501 36,000  Level Chicago Center
09:02PM 40.8275 -86.4625 260° West 440 506 36,000  Level Chicago Center
09:03PM 40.8061 -86.6208 260° West 441 507 36,000  Level Chicago Center
09:04PM 40.7806 -86.8053 260° West 444 511 36,000  Level Chicago Center
09:05PM 40.7583 -86.9644 260° West 442 509 36,000  Level Chicago Center
09:06PM 40.7353 -87.1239 259° West 442 509 36,000  Level Chicago Center
09:07PM 40.7117 -87.2839 259° West 443 510 36,000  Level Chicago Center
09:08PM 40.6892 -87.4428 259° West 442 509 36,000  Level Chicago Center
09:09PM 40.6283 -87.5853 241° Southwest 448 516 36,000 -660 Level Chicago Center
09:11PM 40.4417 -87.8658 229° Southwest 461 531 34,000 -1,200 Descending Chicago Center
09:12PM 40.3561 -87.9936 229° Southwest 463 533 32,400 -1,560 Descending Chicago Center
09:13PM 40.2681 -88.1233 228° Southwest 470 541 30,800 -1,500 Descending Chicago Center
09:14PM 40.1864 -88.2458 229° Southwest 470 541 29,400 -960 Descending Chicago Center
09:16PM 39.9647 -88.4544 216° Southwest 461 531 28,000 -480 Descending Chicago Center
09:17PM 39.8542 -88.5053 199° South 427 491 28,000  Level Chicago Center
09:18PM 39.7450 -88.5550 199° South 417 480 28,000 -300 Level Chicago Center
09:19PM 39.6353 -88.6058 200° South 417 480 27,400 -780 Descending Chicago Center
09:20PM 39.5406 -88.6833 212° Southwest 406 467 26,400 -1,020 Descending Chicago Center
09:21PM 39.4572 -88.7733 220° Southwest 393 452 25,400 -1,080 Descending Chicago Center
09:23PM 39.3483 -88.8914 220° Southwest 393 452 24,000 -1,020 Descending Kansas City Center
09:24PM 39.2647 -88.9781 219° Southwest 391 450 23,100 -720 Descending Kansas City Center
09:25PM 39.1831 -89.0644 219° Southwest 385 443 22,600 -1,440 Descending Kansas City Center
09:26PM 39.0958 -89.1692 223° Southwest 391 450 20,300 -2,160 Descending Kansas City Center
09:27PM 39.0631 -89.2997 252° West 369 425 18,200 -1,860 Descending Kansas City Center
09:28PM 39.0342 -89.4233 253° West 363 418 16,500 -1,380 Descending Kansas City Center
09:29PM 39.0064 -89.5447 254° West 358 412 15,400 -780 Descending Kansas City Center
09:30PM 38.9739 -89.6672 251° West 352 405 15,000 -420 Descending Kansas City Center
09:31PM 38.9339 -89.7950 248° West 352 405 14,600 -780 Descending Kansas City Center
09:32PM 38.9017 -89.8944 247° West 343 395 13,400 -1,320 Descending Kansas City Center
09:33PM 38.8672 -90.0025 248° West 333 383 11,900 -1,680 Descending Kansas City Center
09:34PM 38.8292 -90.1219 248° West 303 349 10,100 -1,620 Descending Kansas City Center
09:35PM 38.7989 -90.2147 247° West 290 334 8,600 -1,020 Descending Kansas City Center
09:36PM 38.8200 -90.3019 287° West 272 313 8,000 -300 Descending Kansas City Center
09:37PM 38.8517 -90.3789 298° West 248 285 8,000 -660 Level Kansas City Center
09:38PM 38.8767 -90.4439 296° West 209 241 6,700 -960 Descending Kansas City Center
09:39PM 38.9075 -90.5222 297° West 208 239 6,000 -600 Descending Kansas City Center
09:40PM 38.9344 -90.5889 297° West 208 239 5,600 -720 Descending Kansas City Center
09:41PM 38.9264 -90.6503 260° West 215 247 4,600 -960 Descending Kansas City Center
09:42PM 38.8806 -90.6317 162° South 198 228 3,700 -780 Descending Kansas City Center
09:43PM 38.8508 -90.5761 124° Southeast 190 219 3,100 -360 Descending Kansas City Center
09:44PM 38.8231 -90.5197 122° Southeast 187 215 3,000 -540 Descending Kansas City Center
09:45PM 38.7967 -90.4653 122° Southeast 183 211 2,100 -840 Descending Kansas City Center
09:46PM 38.7725 -90.4161 122° Southeast 135 155 1,300 -780 Descending Kansas City Center
09:47PM 38.7536 -90.3767 122° Southeast 130 150 600 -780 Descending Kansas City Center